Norton, Virginia
Current Conditions -  °F | °C
As of 1:15 AM on Tuesday 21 Oct 2014 (Local Time) from KLNP Reporting Station
Thunderstorm Thunderstorm  
Wind Chill: 43°   Ceiling: Unl
Heat Index: 46°   Visibility: 10mi
Dew Point: 46°   Wind: 7mph
Humidity: 100%   Direction: 230°SW
Pressure: 30"   Gusts: NA
Location:  36.93°N, 82.63°W
Report Text: KLNP 210515Z AUTO 23006KT 10SM TS CLR 08/08 A3000 RMK AO2 LTG DSNT W
Loading
Personal Weather Stations






























Interactive Weather Map
Tropical Storm Tracking
New forecast layout! Learn more

10-Day Weather Forecast

Advertisements
Track Severe Weather on mobile